createdAt,value
2022-09-09T00:01:59.239Z,18.30
2022-09-09T00:04:31.922Z,18.30
2022-09-09T00:07:07.265Z,18.30
2022-09-09T00:09:46.546Z,18.30
2022-09-09T00:12:18.136Z,18.30
2022-09-09T00:14:45.173Z,18.30
2022-09-09T00:17:26.456Z,18.30
2022-09-09T00:20:12.412Z,18.20
2022-09-09T00:22:41.031Z,18.30
2022-09-09T00:25:17.878Z,18.20
2022-09-09T00:27:51.957Z,18.20
2022-09-09T00:30:23.522Z,18.20
2022-09-09T00:32:55.415Z,18.30
2022-09-09T00:35:36.696Z,18.20
2022-09-09T00:38:19.686Z,18.20
2022-09-09T00:40:53.923Z,18.20
2022-09-09T00:43:32.472Z,18.20
2022-09-09T00:46:33.652Z,18.20
2022-09-09T00:49:25.095Z,18.20
2022-09-09T00:52:27.796Z,18.20
2022-09-09T00:55:27.025Z,18.20
2022-09-09T00:57:54.189Z,18.20
2022-09-09T01:00:25.224Z,18.20
2022-09-09T01:03:09.838Z,18.20
2022-09-09T01:05:47.246Z,18.20
2022-09-09T01:08:42.173Z,18.20
2022-09-09T01:11:17.074Z,18.10
2022-09-09T01:13:50.489Z,18.20
2022-09-09T01:16:18.620Z,18.20
2022-09-09T01:18:50.560Z,18.10
2022-09-09T01:21:40.376Z,18.10
2022-09-09T01:24:37.455Z,18.20
2022-09-09T01:27:07.340Z,18.10
2022-09-09T01:29:34.345Z,18.10
2022-09-09T01:32:03.978Z,18.10
2022-09-09T01:34:36.770Z,18.10
2022-09-09T01:37:06.870Z,18.10
2022-09-09T01:39:36.045Z,18.10
2022-09-09T01:42:05.861Z,18.10
2022-09-09T01:44:33.581Z,18.10
2022-09-09T01:47:00.406Z,18.10
2022-09-09T01:50:23.588Z,18.10
2022-09-09T01:53:46.616Z,18.10
2022-09-09T01:56:40.918Z,18.20
2022-09-09T01:59:39.716Z,18.20
2022-09-09T02:02:44.786Z,18.20
2022-09-09T02:05:36.991Z,18.20
2022-09-09T02:08:24.557Z,18.20
2022-09-09T02:11:13.990Z,18.20
2022-09-09T02:13:41.913Z,18.20
2022-09-09T02:16:16.045Z,18.20
2022-09-09T02:18:54.527Z,18.20
2022-09-09T02:21:23.038Z,18.10
2022-09-09T02:23:53.119Z,18.20
2022-09-09T02:26:24.421Z,18.10
2022-09-09T02:28:54.029Z,18.10
2022-09-09T02:31:23.592Z,18.10
2022-09-09T02:33:58.480Z,18.10
2022-09-09T02:36:30.189Z,18.10
2022-09-09T02:38:58.120Z,18.10
2022-09-09T02:41:30.470Z,18.10
2022-09-09T02:43:58.024Z,18.00
2022-09-09T02:47:00.397Z,18.00
2022-09-09T02:49:50.999Z,18.00
2022-09-09T02:52:32.117Z,18.10
2022-09-09T02:55:06.048Z,18.00
2022-09-09T02:57:34.923Z,18.00
2022-09-09T03:00:02.721Z,18.10
2022-09-09T03:02:29.593Z,18.10
2022-09-09T03:04:56.414Z,18.10
2022-09-09T03:07:23.429Z,18.10
2022-09-09T03:09:50.448Z,18.10
2022-09-09T03:12:17.447Z,18.20
2022-09-09T03:14:46.493Z,18.20
2022-09-09T03:17:13.560Z,18.20
2022-09-09T03:19:40.949Z,18.10
2022-09-09T03:22:10.881Z,18.10
2022-09-09T03:24:37.761Z,18.10
2022-09-09T03:27:04.820Z,18.10
2022-09-09T03:29:31.653Z,18.10
2022-09-09T03:31:58.562Z,18.10
2022-09-09T03:34:25.438Z,18.10
2022-09-09T03:36:52.234Z,18.20
2022-09-09T03:39:19.076Z,18.20
2022-09-09T03:41:46.434Z,18.10
2022-09-09T03:44:13.371Z,18.10
2022-09-09T03:46:40.510Z,18.10
2022-09-09T03:49:07.419Z,18.10
2022-09-09T03:51:37.769Z,18.10
2022-09-09T03:54:06.173Z,18.10
2022-09-09T03:56:33.149Z,18.10
2022-09-09T03:58:59.947Z,18.10
2022-09-09T04:01:28.067Z,18.00
2022-09-09T04:03:56.276Z,18.00
2022-09-09T04:06:23.098Z,18.00
2022-09-09T04:08:49.923Z,18.00
2022-09-09T04:11:17.302Z,18.00
2022-09-09T04:13:45.532Z,18.00
2022-09-09T04:16:16.824Z,18.00
2022-09-09T04:18:44.149Z,18.00
2022-09-09T04:21:12.211Z,18.00
2022-09-09T04:23:39.595Z,17.90
2022-09-09T04:26:06.707Z,17.90
2022-09-09T04:28:36.722Z,17.90
2022-09-09T04:31:08.815Z,17.90
2022-09-09T04:33:40.137Z,17.90
2022-09-09T04:36:07.974Z,17.90
2022-09-09T04:38:34.889Z,17.90
2022-09-09T04:41:02.549Z,17.90
2022-09-09T04:43:29.528Z,17.90
2022-09-09T04:45:56.843Z,17.90
2022-09-09T04:48:23.937Z,17.90
2022-09-09T04:51:05.859Z,17.80
2022-09-09T04:53:35.102Z,17.90
2022-09-09T04:56:08.013Z,17.80
2022-09-09T04:58:35.189Z,17.80
2022-09-09T05:01:10.216Z,17.80
2022-09-09T05:03:37.568Z,17.80
2022-09-09T05:06:12.385Z,17.80
2022-09-09T05:08:40.360Z,17.80
2022-09-09T05:11:18.333Z,17.80
2022-09-09T05:13:45.770Z,17.70
2022-09-09T05:16:13.949Z,17.70
2022-09-09T05:18:41.550Z,17.70
2022-09-09T05:21:08.887Z,17.70
2022-09-09T05:23:36.272Z,17.70
2022-09-09T05:26:03.927Z,17.70
2022-09-09T05:28:31.470Z,17.70
2022-09-09T05:30:59.584Z,17.70
2022-09-09T05:33:26.961Z,17.70
2022-09-09T05:36:04.832Z,17.80
2022-09-09T05:38:32.352Z,17.80
2022-09-09T05:40:59.162Z,17.70
2022-09-09T05:43:27.096Z,17.70
2022-09-09T05:46:21.645Z,17.70
2022-09-09T05:48:53.194Z,17.80
2022-09-09T05:51:22.879Z,17.80
2022-09-09T05:53:50.377Z,17.80
2022-09-09T05:56:23.417Z,17.90
2022-09-09T05:58:50.513Z,17.90
2022-09-09T06:01:19.673Z,17.90
2022-09-09T06:03:48.137Z,17.90
2022-09-09T06:06:18.681Z,17.90
2022-09-09T06:08:46.380Z,17.90
2022-09-09T06:11:19.374Z,18.00
2022-09-09T06:13:46.941Z,18.00
2022-09-09T06:16:16.002Z,18.00
2022-09-09T06:18:43.372Z,18.00
2022-09-09T06:21:17.268Z,18.00
2022-09-09T06:23:45.561Z,18.00
2022-09-09T06:26:15.620Z,18.10
2022-09-09T06:28:43.901Z,18.20
2022-09-09T06:31:13.452Z,18.20
2022-09-09T06:33:42.260Z,18.20
2022-09-09T06:36:13.695Z,18.20
2022-09-09T06:38:40.570Z,18.20
2022-09-09T06:41:07.446Z,18.20
2022-09-09T06:43:34.283Z,18.20
2022-09-09T06:46:06.551Z,18.20
2022-09-09T06:48:33.796Z,18.30
2022-09-09T06:51:12.614Z,18.30
2022-09-09T06:53:43.026Z,18.30
2022-09-09T06:56:22.773Z,18.30
2022-09-09T06:58:50.778Z,18.40
2022-09-09T07:01:20.530Z,18.40
2022-09-09T07:03:52.330Z,18.40
2022-09-09T07:06:25.193Z,18.40
2022-09-09T07:08:57.094Z,18.40
2022-09-09T07:11:27.942Z,18.40
2022-09-09T07:13:55.385Z,18.30
2022-09-09T07:16:26.611Z,18.40
2022-09-09T07:18:56.436Z,18.40
2022-09-09T07:21:23.269Z,18.40
2022-09-09T07:23:50.075Z,18.40
2022-09-09T07:26:22.542Z,18.50
2022-09-09T07:28:50.313Z,18.50
2022-09-09T07:31:19.920Z,18.60
2022-09-09T07:33:47.488Z,18.60
2022-09-09T07:36:22.812Z,18.60
2022-09-09T07:38:52.520Z,18.60
2022-09-09T07:41:25.957Z,18.60
2022-09-09T07:43:54.966Z,18.70
2022-09-09T07:46:24.529Z,18.70
2022-09-09T07:48:54.400Z,18.70
2022-09-09T07:51:33.133Z,18.70
2022-09-09T07:54:03.118Z,18.80
2022-09-09T07:56:33.554Z,18.80
2022-09-09T07:59:00.987Z,18.80
2022-09-09T08:01:31.017Z,18.80
2022-09-09T08:04:09.619Z,18.70
2022-09-09T08:06:43.374Z,18.80
2022-09-09T08:09:11.208Z,18.80
2022-09-09T08:11:39.519Z,18.80
2022-09-09T08:14:08.749Z,18.80
2022-09-09T08:16:38.905Z,18.80
2022-09-09T08:19:06.660Z,18.90
2022-09-09T08:21:35.035Z,18.90
2022-09-09T08:24:03.242Z,18.90
2022-09-09T08:26:33.067Z,18.90
2022-09-09T08:29:01.441Z,18.90
2022-09-09T08:31:38.314Z,19.00
2022-09-09T08:34:06.826Z,19.00
2022-09-09T08:36:39.394Z,19.00
2022-09-09T08:39:08.068Z,19.00
2022-09-09T08:41:55.960Z,19.10
2022-09-09T08:44:48.642Z,19.10
2022-09-09T08:47:37.143Z,19.10
2022-09-09T08:50:10.625Z,19.10
2022-09-09T08:52:55.838Z,19.10
2022-09-09T08:55:37.731Z,19.10
2022-09-09T08:58:15.687Z,19.10
2022-09-09T09:01:05.145Z,19.20
2022-09-09T09:03:34.652Z,19.30
2022-09-09T09:06:16.617Z,19.40
2022-09-09T09:09:03.594Z,19.60
2022-09-09T09:11:51.554Z,19.60
2022-09-09T09:14:22.454Z,19.70
2022-09-09T09:16:58.605Z,19.70
2022-09-09T09:19:27.360Z,19.80
2022-09-09T09:22:28.902Z,19.80
2022-09-09T09:24:58.909Z,19.90
2022-09-09T09:27:33.437Z,19.90
2022-09-09T09:30:26.794Z,19.90
2022-09-09T09:33:00.564Z,19.90
2022-09-09T09:35:27.499Z,19.90
2022-09-09T09:40:56.095Z,19.80
2022-09-09T09:43:27.919Z,19.80
2022-09-09T09:46:14.298Z,19.80
2022-09-09T09:48:41.611Z,19.80
2022-09-09T09:51:11.817Z,19.80
2022-09-09T09:53:40.031Z,19.70
2022-09-09T09:56:10.074Z,19.80
2022-09-09T09:58:45.725Z,19.80
2022-09-09T10:01:41.769Z,19.80
2022-09-09T10:04:21.759Z,19.90
2022-09-09T10:06:48.904Z,19.90
2022-09-09T10:09:26.685Z,19.90
2022-09-09T10:12:12.195Z,19.90
2022-09-09T10:15:22.175Z,19.90
2022-09-09T10:17:56.040Z,19.90
2022-09-09T10:20:47.322Z,19.90
2022-09-09T10:23:26.355Z,19.90
2022-09-09T10:26:11.727Z,20.10
2022-09-09T10:29:00.329Z,20.20
2022-09-09T10:31:58.909Z,20.20
2022-09-09T10:35:03.903Z,20.30
2022-09-09T10:37:48.635Z,20.30
2022-09-09T10:40:35.527Z,20.30
2022-09-09T10:43:22.577Z,20.30
2022-09-09T10:45:55.826Z,20.40
2022-09-09T10:48:35.213Z,20.40
2022-09-09T10:51:24.947Z,20.40
2022-09-09T10:53:55.216Z,20.50
2022-09-09T10:56:25.059Z,20.40
2022-09-09T10:58:59.331Z,20.50
2022-09-09T11:01:35.491Z,20.50
2022-09-09T11:04:33.711Z,20.50
2022-09-09T11:07:11.513Z,20.40
2022-09-09T11:09:44.391Z,20.40
2022-09-09T11:12:19.277Z,20.40
2022-09-09T11:14:55.592Z,20.40
2022-09-09T11:17:28.153Z,20.40
2022-09-09T11:19:56.038Z,20.40
2022-09-09T11:22:38.060Z,20.50
2022-09-09T11:25:07.800Z,20.50
2022-09-09T11:27:52.144Z,20.50
2022-09-09T11:30:56.714Z,20.50
2022-09-09T11:34:02.150Z,20.60
2022-09-09T11:36:54.195Z,20.50
2022-09-09T11:39:36.436Z,20.50
2022-09-09T11:42:29.713Z,20.60
2022-09-09T11:44:57.813Z,20.60
2022-09-09T11:47:32.479Z,20.60
2022-09-09T11:50:31.483Z,20.60
2022-09-09T11:53:23.758Z,20.70
2022-09-09T11:56:12.093Z,20.70
2022-09-09T11:58:42.402Z,20.70
2022-09-09T12:01:50.976Z,20.70
2022-09-09T12:04:30.701Z,20.80
2022-09-09T12:06:59.612Z,20.80
2022-09-09T12:09:44.316Z,20.80
2022-09-09T12:12:14.151Z,20.70
2022-09-09T12:14:46.478Z,20.70
2022-09-09T12:17:20.830Z,20.70
2022-09-09T12:19:48.711Z,20.70
2022-09-09T12:22:39.616Z,20.70
2022-09-09T12:25:49.503Z,20.70
2022-09-09T12:28:34.798Z,20.60
2022-09-09T12:31:46.474Z,20.50
2022-09-09T12:34:36.929Z,20.40
2022-09-09T12:37:21.810Z,20.20
2022-09-09T12:40:23.248Z,20.10
2022-09-09T12:42:50.125Z,19.90
2022-09-09T12:45:18.501Z,19.80
2022-09-09T12:48:08.807Z,19.70
2022-09-09T12:50:46.283Z,19.70
2022-09-09T12:53:31.188Z,19.70
2022-09-09T12:56:11.152Z,19.60
2022-09-09T12:58:39.370Z,19.60
2022-09-09T13:01:07.701Z,19.50
2022-09-09T13:03:43.783Z,19.50
2022-09-09T13:06:19.980Z,19.50
2022-09-09T13:08:46.826Z,19.50
2022-09-09T13:11:40.590Z,19.50
2022-09-09T13:14:07.628Z,19.40
2022-09-09T13:16:40.426Z,19.40
2022-09-09T13:19:17.257Z,19.40
2022-09-09T13:21:44.530Z,19.30
2022-09-09T13:24:40.553Z,19.30
2022-09-09T13:27:35.391Z,19.30
2022-09-09T13:30:03.145Z,19.30
2022-09-09T13:32:30.565Z,19.30
2022-09-09T13:35:00.112Z,19.30
2022-09-09T13:37:34.880Z,19.30
2022-09-09T13:40:03.709Z,19.30
2022-09-09T13:42:33.310Z,19.30
2022-09-09T13:45:01.190Z,19.20
2022-09-09T13:47:36.045Z,19.20
2022-09-09T13:50:32.237Z,19.20
2022-09-09T13:53:00.501Z,19.20
2022-09-09T13:55:31.136Z,19.20
2022-09-09T13:58:04.015Z,19.20
2022-09-09T14:00:33.751Z,19.30
2022-09-09T14:03:04.219Z,19.30
2022-09-09T14:05:34.206Z,19.30
2022-09-09T14:08:04.390Z,19.30
2022-09-09T14:10:31.451Z,19.30
2022-09-09T14:12:58.321Z,19.30
2022-09-09T14:15:25.238Z,19.30
2022-09-09T14:17:53.312Z,19.30
2022-09-09T14:20:20.387Z,19.30
2022-09-09T14:22:47.554Z,19.30
2022-09-09T14:25:17.135Z,19.30
2022-09-09T14:27:44.316Z,19.20
2022-09-09T14:30:11.652Z,19.20
2022-09-09T14:32:38.564Z,19.20
2022-09-09T14:35:05.685Z,19.20
2022-09-09T14:37:32.504Z,19.20
2022-09-09T14:39:59.585Z,19.20
2022-09-09T14:42:27.824Z,19.20
2022-09-09T14:44:54.647Z,19.20
2022-09-09T14:47:21.562Z,19.20
2022-09-09T14:49:50.585Z,19.30
2022-09-09T14:52:17.652Z,19.40
2022-09-09T14:54:44.458Z,19.40
2022-09-09T14:57:11.271Z,19.50
2022-09-09T14:59:38.159Z,19.50
2022-09-09T15:02:05.646Z,19.50
2022-09-09T15:04:32.580Z,19.50
2022-09-09T15:06:59.912Z,19.50
2022-09-09T15:09:26.781Z,19.50
2022-09-09T15:11:53.604Z,19.50
2022-09-09T15:14:23.965Z,19.50
2022-09-09T15:16:52.935Z,19.50
2022-09-09T15:19:19.752Z,19.60
2022-09-09T15:21:46.560Z,19.60
2022-09-09T15:24:14.372Z,19.60
2022-09-09T15:26:41.246Z,19.70
2022-09-09T15:29:09.218Z,19.60
2022-09-09T15:31:36.927Z,19.60
2022-09-09T15:34:06.690Z,19.70
2022-09-09T15:36:37.927Z,19.60
2022-09-09T15:39:07.371Z,19.70
2022-09-09T15:41:34.470Z,19.60
2022-09-09T15:44:01.736Z,19.60
2022-09-09T15:46:39.247Z,19.60
2022-09-09T15:49:11.248Z,19.60
2022-09-09T15:51:43.207Z,19.60
2022-09-09T15:54:13.375Z,19.60
2022-09-09T15:56:40.914Z,19.60
2022-09-09T15:59:08.394Z,19.60
2022-09-09T16:01:36.684Z,19.60
2022-09-09T16:04:03.717Z,19.60
2022-09-09T16:06:31.112Z,19.60
2022-09-09T16:08:59.559Z,19.60
2022-09-09T16:11:32.135Z,19.70
2022-09-09T16:13:59.791Z,19.70
2022-09-09T16:16:28.834Z,19.70
2022-09-09T16:19:05.371Z,19.70
2022-09-09T16:21:36.185Z,19.70
2022-09-09T16:24:04.645Z,19.60
2022-09-09T16:26:36.360Z,19.60
2022-09-09T16:29:03.877Z,19.60
2022-09-09T16:31:33.163Z,19.60
2022-09-09T16:34:00.335Z,19.60
2022-09-09T16:36:29.577Z,19.50
2022-09-09T16:38:58.530Z,19.60
2022-09-09T16:41:29.565Z,19.50
2022-09-09T16:44:01.518Z,19.40
2022-09-09T16:46:29.803Z,19.40
2022-09-09T16:49:01.829Z,19.50
2022-09-09T16:51:37.268Z,19.40
2022-09-09T16:54:07.945Z,19.40
2022-09-09T16:56:41.797Z,19.50
2022-09-09T16:59:14.322Z,19.50
2022-09-09T17:01:43.236Z,19.50
2022-09-09T17:04:14.248Z,19.40
2022-09-09T17:06:42.461Z,19.40
2022-09-09T17:09:12.121Z,19.50
2022-09-09T17:11:40.051Z,19.50
2022-09-09T17:14:10.364Z,19.40
2022-09-09T17:16:37.960Z,19.50
2022-09-09T17:19:05.309Z,19.50
2022-09-09T17:21:33.130Z,19.50
2022-09-09T17:24:00.537Z,19.50
2022-09-09T17:26:30.682Z,19.40
2022-09-09T17:28:59.818Z,19.40
2022-09-09T17:31:28.628Z,19.40
2022-09-09T17:33:56.526Z,19.40
2022-09-09T17:36:26.706Z,19.30
2022-09-09T17:38:53.766Z,19.30
2022-09-09T17:41:22.145Z,19.20
2022-09-09T17:43:50.452Z,19.20
2022-09-09T17:46:25.987Z,19.20
2022-09-09T17:48:54.767Z,19.10
2022-09-09T17:51:28.340Z,19.10
2022-09-09T17:53:56.940Z,19.00
2022-09-09T17:56:27.250Z,19.00
2022-09-09T17:58:54.097Z,19.00
2022-09-09T18:01:27.911Z,18.90
2022-09-09T18:03:59.641Z,18.90
2022-09-09T18:06:29.234Z,18.80
2022-09-09T18:08:58.577Z,18.80
2022-09-09T18:11:29.563Z,18.80
2022-09-09T18:13:58.686Z,18.80
2022-09-09T18:16:26.908Z,18.70
2022-09-09T18:18:55.972Z,18.70
2022-09-09T18:21:24.388Z,18.70
2022-09-09T18:23:52.323Z,18.70
2022-09-09T18:26:22.691Z,18.70
2022-09-09T18:28:51.631Z,18.60
2022-09-09T18:31:21.155Z,18.70
2022-09-09T18:33:51.790Z,18.70
2022-09-09T18:36:21.434Z,18.60
2022-09-09T18:38:48.857Z,18.60
2022-09-09T18:41:21.726Z,18.70
2022-09-09T18:43:55.067Z,18.70
2022-09-09T18:46:22.856Z,18.70
2022-09-09T18:48:50.525Z,18.70
2022-09-09T18:51:20.087Z,18.70
2022-09-09T18:54:14.027Z,18.70
2022-09-09T18:56:41.444Z,18.70
2022-09-09T18:59:11.356Z,18.70
2022-09-09T19:01:38.400Z,18.60
2022-09-09T19:04:06.815Z,18.60
2022-09-09T19:06:36.712Z,18.60
2022-09-09T19:09:04.659Z,18.60
2022-09-09T19:11:32.447Z,18.60
2022-09-09T19:14:01.786Z,18.60
2022-09-09T19:16:31.533Z,18.50
2022-09-09T19:19:00.879Z,18.40
2022-09-09T19:21:33.547Z,18.40
2022-09-09T19:24:02.088Z,18.50
2022-09-09T19:26:32.219Z,18.50
2022-09-09T19:29:00.560Z,18.40
2022-09-09T19:31:31.106Z,18.40
2022-09-09T19:33:58.334Z,18.40
2022-09-09T19:36:29.742Z,18.40
2022-09-09T19:38:56.678Z,18.40
2022-09-09T19:41:26.056Z,18.30
2022-09-09T19:43:57.409Z,18.30
2022-09-09T19:46:24.351Z,18.30
2022-09-09T19:48:51.191Z,18.20
2022-09-09T19:51:22.378Z,18.20
2022-09-09T19:53:51.596Z,18.20
2022-09-09T19:56:19.845Z,18.20
2022-09-09T19:58:47.673Z,18.30
2022-09-09T20:01:23.431Z,18.30
2022-09-09T20:03:52.349Z,18.30
2022-09-09T20:06:23.668Z,18.30
2022-09-09T20:08:51.127Z,18.30
2022-09-09T20:11:18.350Z,18.30
2022-09-09T20:13:45.174Z,18.30
2022-09-09T20:16:20.604Z,18.30
2022-09-09T20:18:56.615Z,18.30
2022-09-09T20:21:32.087Z,18.30
2022-09-09T20:24:05.975Z,18.30
2022-09-09T20:26:35.203Z,18.20
2022-09-09T20:29:04.950Z,18.20
2022-09-09T20:31:36.445Z,18.20
2022-09-09T20:34:04.431Z,18.20
2022-09-09T20:36:33.876Z,18.20
2022-09-09T20:39:07.422Z,18.20
2022-09-09T20:41:36.594Z,18.20
2022-09-09T20:44:09.439Z,18.10
2022-09-09T20:46:38.063Z,18.20
2022-09-09T20:49:06.928Z,18.20
2022-09-09T20:51:35.892Z,18.20
2022-09-09T20:54:12.443Z,18.20
2022-09-09T20:56:42.370Z,18.10
2022-09-09T20:59:14.601Z,18.10
2022-09-09T21:01:42.125Z,18.10
2022-09-09T21:04:09.957Z,18.10
2022-09-09T21:06:37.170Z,18.20
2022-09-09T21:09:04.650Z,18.20
2022-09-09T21:11:31.563Z,18.20
2022-09-09T21:13:58.977Z,18.20
2022-09-09T21:16:26.516Z,18.10
2022-09-09T21:18:53.729Z,18.10
2022-09-09T21:21:21.220Z,18.20
2022-09-09T21:23:49.192Z,18.10
2022-09-09T21:26:17.924Z,18.10
2022-09-09T21:28:44.721Z,18.10
2022-09-09T21:31:15.944Z,18.10
2022-09-09T21:33:43.094Z,18.00
2022-09-09T21:36:12.299Z,18.00
2022-09-09T21:38:40.748Z,18.00
2022-09-09T21:41:10.190Z,18.10
2022-09-09T21:43:37.008Z,18.00
2022-09-09T21:46:11.699Z,18.00
2022-09-09T21:48:39.167Z,18.00
2022-09-09T21:51:09.462Z,18.00
2022-09-09T21:53:36.669Z,18.00
2022-09-09T21:56:07.068Z,18.00
2022-09-09T21:58:37.765Z,18.00
2022-09-09T22:01:16.806Z,18.00
2022-09-09T22:03:44.287Z,17.90
2022-09-09T22:06:14.756Z,17.90
2022-09-09T22:08:41.755Z,17.90
2022-09-09T22:11:11.577Z,17.90
2022-09-09T22:13:38.583Z,17.90
2022-09-09T22:16:08.037Z,17.90
2022-09-09T22:18:35.225Z,17.90
2022-09-09T22:21:16.022Z,17.80
2022-09-09T22:23:42.898Z,17.80
2022-09-09T22:26:10.464Z,17.80
2022-09-09T22:28:38.846Z,17.80
2022-09-09T22:31:06.555Z,17.80
2022-09-09T22:33:34.840Z,17.80
2022-09-09T22:36:01.908Z,17.80
2022-09-09T22:38:29.461Z,17.80
2022-09-09T22:40:56.267Z,17.80
2022-09-09T22:43:23.148Z,17.80
2022-09-09T22:45:51.000Z,17.70
2022-09-09T22:48:18.244Z,17.80
2022-09-09T22:50:45.292Z,17.70
2022-09-09T22:53:18.746Z,17.80
2022-09-09T22:56:06.108Z,17.80
2022-09-09T22:58:35.257Z,17.70
2022-09-09T23:01:10.196Z,17.70
2022-09-09T23:03:37.284Z,17.70
2022-09-09T23:06:04.344Z,17.70
2022-09-09T23:08:35.535Z,17.70
2022-09-09T23:11:09.326Z,17.70
2022-09-09T23:13:41.595Z,17.70
2022-09-09T23:16:13.035Z,17.70
2022-09-09T23:18:43.701Z,17.70
2022-09-09T23:21:12.204Z,17.60
2022-09-09T23:23:43.355Z,17.60
2022-09-09T23:26:12.108Z,17.60
2022-09-09T23:28:42.610Z,17.60
2022-09-09T23:31:14.117Z,17.60
2022-09-09T23:33:43.405Z,17.60
2022-09-09T23:36:16.236Z,17.60
2022-09-09T23:38:43.719Z,17.60
2022-09-09T23:41:13.760Z,17.60
2022-09-09T23:43:41.225Z,17.60
2022-09-09T23:46:15.942Z,17.50
2022-09-09T23:48:43.404Z,17.50
2022-09-09T23:51:17.504Z,17.50
2022-09-09T23:53:48.957Z,17.50
2022-09-09T23:56:15.823Z,17.60
2022-09-09T23:58:42.622Z,17.50
